Coventry, Vermont
Current Conditions -  °F | °C
As of 2:55 AM on Monday 24 Nov 2014 (Local Time) from KEFK Reporting Station
Clear Clear  
Wind Chill: 38°   Ceiling: Unl
Heat Index: 44°   Visibility: 10mi
Dew Point: 36°   Wind: 12mph
Humidity: 73%   Direction: 180°S
Pressure: 29.89"   Gusts: 17mph
Location:  44.87°N, 72.27°W
Report Text: KEFK 240755Z AUTO 18010G15KT 10SM CLR 07/02 A2989 RMK AO2 T00670021
Loading
Personal Weather Stations






























Interactive Weather Map New forecast layout! Learn more

10-Day Weather Forecast

Advertisements
Track Severe Weather on mobile